Time;durP1;ratioP1;P1;durP2;ratioP2;P2;SDS_P1;SDS_P2;PMS_P1;PMS_P2;Temp;Humidity;BMP_temperature;BMP_pressure;BME280_temperature;BME280_humidity;BME280_pressure;Samples;Min_cycle;Max_cycle;Signal;HPM_P1;HPM_P2
2021/12/10 00:02:02;;;;;;;14.43;9.95;;;;;;;3.40;100.00;99814.94;1700101;80;20971;-84
2021/12/10 00:04:31;;;;;;;13.90;9.80;;;;;;;3.43;100.00;99807.88;1698455;83;20897;-85
2021/12/10 00:07:04;;;;;;;14.78;9.58;;;;;;;3.41;100.00;99812.56;1663038;81;20849;-91
2021/12/10 00:09:35;;;;;;;;;;;;;;;3.42;100.00;99812.89;1669832;83;21279;-84
2021/12/10 00:12:15;;;;;;;12.75;9.35;;;;;;;3.44;100.00;99806.88;1692843;85;20210;-84
2021/12/10 00:14:45;;;;;;;15.13;9.58;;;;;;;3.45;100.00;99806.36;1640865;86;20967;-87
2021/12/10 00:17:12;;;;;;;13.03;10.15;;;;;;;3.45;100.00;99807.16;1624021;85;21036;-92
2021/12/10 00:19:48;;;;;;;12.05;10.38;;;;;;;3.42;100.00;99811.55;1661929;83;21579;-83
2021/12/10 00:22:27;;;;;;;12.73;10.98;;;;;;;3.48;100.00;99807.28;1661360;86;21093;-83
2021/12/10 00:24:55;;;;;;;10.75;8.23;;;;;;;3.48;100.00;99808.61;1660194;86;21059;-85
2021/12/10 00:27:28;;;;;;;10.38;9.15;;;;;;;3.48;100.00;99808.61;1642572;86;21051;-75
2021/12/10 00:29:50;;;;;;;10.55;7.62;;;;;;;3.57;100.00;99813.22;1659091;86;21056;-80
2021/12/10 00:32:28;;;;;;;12.93;9.45;;;;;;;3.53;100.00;99814.14;1659461;86;21066;-81
2021/12/10 00:34:49;;;;;;;13.13;9.95;;;;;;;3.54;100.00;99809.14;1637716;86;22486;-87
2021/12/10 00:37:17;;;;;;;13.48;10.13;;;;;;;3.51;100.00;99804.20;1621546;87;21501;-84
2021/12/10 00:39:52;;;;;;;10.75;9.50;;;;;;;3.50;100.00;99816.68;1619554;86;21035;-83
2021/12/10 00:42:23;;;;;;;17.07;14.43;;;;;;;3.51;100.00;99813.01;1678542;85;21058;-75
2021/12/10 00:44:51;;;;;;;20.23;17.07;;;;;;;3.52;100.00;99812.50;1713798;83;21018;-75
2021/12/10 00:47:18;;;;;;;24.23;20.52;;;;;;;3.50;100.00;99807.38;1699749;83;22064;-72
2021/12/10 00:49:44;;;;;;;28.00;22.55;;;;;;;3.57;100.00;99818.03;1691972;83;20983;-75
2021/12/10 00:52:12;;;;;;;27.55;21.52;;;;;;;3.65;100.00;99817.02;1691958;83;20996;-74
2021/12/10 00:54:39;;;;;;;36.58;27.05;;;;;;;3.70;100.00;99821.22;1716023;83;21012;-73
2021/12/10 00:57:06;;;;;;;34.92;27.37;;;;;;;3.70;100.00;99821.22;1677009;84;21066;-75
2021/12/10 00:59:33;;;;;;;25.12;22.17;;;;;;;3.69;100.00;99815.11;1677209;84;21043;-75
2021/12/10 01:01:59;;;;;;;23.42;18.25;;;;;;;3.73;100.00;99816.34;1695033;84;20967;-74
2021/12/10 01:04:32;;;;;;;24.52;18.27;;;;;;;3.74;100.00;99809.18;1677499;84;21110;-84
2021/12/10 01:07:02;;;;;;;28.27;21.75;;;;;;;3.73;100.00;99809.69;1710567;82;21032;-80
2021/12/10 01:09:32;;;;;;;30.65;24.55;;;;;;;3.74;100.00;99799.33;1676627;82;21437;-83
2021/12/10 01:12:15;;;;;;;27.70;22.85;;;;;;;3.76;100.00;99795.15;1674565;85;21141;-84
2021/12/10 01:25:55;;;;;;;21.00;16.10;;;;;;;3.82;100.00;99787.69;1691048;84;21135;-88
2021/12/10 01:28:12;;;;;;;23.32;17.32;;;;;;;3.81;100.00;99782.88;1673903;84;21030;-76
2021/12/10 01:30:39;;;;;;;17.17;15.10;;;;;;;3.87;100.00;99782.08;1701514;82;21500;-80
2021/12/10 01:33:10;;;;;;;16.10;12.65;;;;;;;3.87;100.00;99782.08;1708837;81;21023;-80
2021/12/10 01:35:42;;;;;;;18.30;13.60;;;;;;;3.95;100.00;99774.39;1667354;85;21130;-78
2021/12/10 01:38:10;;;;;;;24.75;14.85;;;;;;;3.98;100.00;99771.30;1674677;85;21074;-76
2021/12/10 01:40:41;;;;;;;16.90;14.28;;;;;;;4.09;100.00;99773.36;1656932;84;21552;-82
2021/12/10 01:43:11;;;;;;;24.98;19.50;;;;;;;4.09;100.00;99773.36;1690812;84;21084;-76
2021/12/10 01:45:46;;;;;;;28.75;21.65;;;;;;;4.10;100.00;99768.35;1652203;84;20984;-85
2021/12/10 01:48:12;;;;;;;27.37;19.92;;;;;;;4.08;100.00;99774.38;1702317;84;21003;-79
2021/12/10 01:50:39;;;;;;;31.73;22.50;;;;;;;4.11;100.00;99769.99;1674733;84;21088;-79
2021/12/10 01:53:10;;;;;;;32.17;21.25;;;;;;;4.14;100.00;99768.75;1701503;84;21208;-81
2021/12/10 01:55:40;;;;;;;41.48;21.42;;;;;;;4.17;100.00;99765.16;1701465;84;21643;-82
2021/12/10 01:58:09;;;;;;;25.17;17.87;;;;;;;4.23;100.00;99756.86;1671979;84;21102;-73
2021/12/10 02:00:37;;;;;;;23.22;15.75;;;;;;;4.26;100.00;99762.61;1680481;82;21536;-71
2021/12/10 02:03:04;;;;;;;28.92;20.00;;;;;;;4.23;100.00;99761.67;1705413;82;21335;-73
2021/12/10 02:05:30;;;;;;;23.35;14.98;;;;;;;4.25;100.00;99758.81;1637753;87;21082;-74
2021/12/10 02:07:58;;;;;;;21.45;16.27;;;;;;;4.28;100.00;99762.38;1686084;84;21559;-74
2021/12/10 02:10:26;;;;;;;20.72;14.78;;;;;;;4.31;100.00;99759.33;1652770;84;21659;-74
2021/12/10 02:12:53;;;;;;;17.98;13.60;;;;;;;4.37;100.00;99751.30;1669680;85;21070;-77
2021/12/10 02:15:21;;;;;;;20.75;15.28;;;;;;;4.45;100.00;99743.63;1674271;84;21600;-75
2021/12/10 02:17:49;;;;;;;16.37;13.80;;;;;;;4.50;100.00;99737.67;1698032;83;21035;-82
2021/12/10 02:20:24;;;;;;;25.35;18.55;;;;;;;4.54;100.00;99744.21;1696657;84;20947;-77
2021/12/10 02:22:51;;;;;;;33.08;21.73;;;;;;;4.55;100.00;99740.02;1682644;84;21006;-73
2021/12/10 02:25:25;;;;;;;31.42;22.35;;;;;;;4.54;100.00;99743.70;1693897;84;21037;-82
2021/12/10 02:27:52;;;;;;;24.02;16.48;;;;;;;4.58;100.00;99750.23;1679555;83;21760;-75
2021/12/10 02:30:20;;;;;;;24.27;17.07;;;;;;;4.60;100.00;99756.19;1698162;83;20979;-75
2021/12/10 02:32:47;;;;;;;21.07;15.35;;;;;;;4.64;100.00;99756.06;1726911;82;20956;-76
2021/12/10 02:35:14;;;;;;;18.05;12.68;;;;;;;4.70;100.00;99756.54;1694045;83;21071;-74
2021/12/10 02:37:44;;;;;;;19.90;14.35;;;;;;;4.74;100.00;99761.77;1685832;83;21110;-80
2021/12/10 02:40:13;;;;;;;19.10;14.07;;;;;;;4.75;100.00;99765.23;1696162;83;21151;-81
2021/12/10 02:42:39;;;;;;;19.10;13.45;;;;;;;4.74;100.00;99770.28;1668274;84;21726;-79
2021/12/10 02:45:08;;;;;;;18.60;14.43;;;;;;;4.78;100.00;99772.82;1695846;84;21079;-77
2021/12/10 02:47:34;;;;;;;20.05;13.58;;;;;;;4.84;100.00;99771.98;1696955;84;21579;-77
2021/12/10 02:50:01;;;;;;;20.97;15.15;;;;;;;4.92;100.00;99774.41;1726378;83;21570;-77
2021/12/10 02:52:28;;;;;;;18.92;14.53;;;;;;;5.02;100.00;99781.95;1698085;83;21060;-78
2021/12/10 02:54:57;;;;;;;16.70;14.35;;;;;;;5.13;100.00;99778.63;1658963;86;20967;-77
2021/12/10 02:57:23;;;;;;;19.00;14.00;;;;;;;5.24;100.00;99773.94;1682572;83;21070;-73
2021/12/10 02:59:50;;;;;;;17.85;15.23;;;;;;;5.31;100.00;99772.59;1668801;84;21126;-81
2021/12/10 03:02:18;;;;;;;18.00;13.98;;;;;;;5.41;100.00;99770.28;1703020;83;21149;-80
2021/12/10 03:04:46;;;;;;;20.30;14.47;;;;;;;5.38;100.00;99774.17;1703098;83;21583;-81
2021/12/10 03:07:14;;;;;;;16.10;11.65;;;;;;;5.38;100.00;99767.50;1691553;84;21528;-78
2021/12/10 03:09:44;;;;;;;19.77;14.78;;;;;;;5.40;100.00;99768.63;1688427;84;21089;-78
2021/12/10 03:12:12;;;;;;;17.85;13.48;;;;;;;5.41;100.00;99771.61;1688675;84;21043;-76
2021/12/10 03:14:40;;;;;;;19.75;15.30;;;;;;;5.49;100.00;99770.83;1674983;84;21027;-84
2021/12/10 03:17:12;;;;;;;18.35;14.43;;;;;;;5.53;100.00;99776.03;1703140;83;21601;-79
2021/12/10 03:19:38;;;;;;;17.85;12.53;;;;;;;5.51;100.00;99777.30;1687871;84;20959;-77
2021/12/10 03:22:06;;;;;;;15.83;12.55;;;;;;;5.49;100.00;99774.02;1670192;85;21587;-79
2021/12/10 03:24:32;;;;;;;18.55;14.50;;;;;;;5.53;100.00;99759.20;1668795;84;21052;-79
2021/12/10 03:27:02;;;;;;;17.62;14.45;;;;;;;5.52;100.00;99761.05;1687560;84;21063;-80
2021/12/10 03:29:29;;;;;;;16.57;13.15;;;;;;;5.57;100.00;99765.74;1670526;85;21048;-77
2021/12/10 03:31:58;;;;;;;19.30;14.78;;;;;;;5.64;100.00;99770.02;1688021;84;20955;-77
2021/12/10 03:34:24;;;;;;;21.75;15.95;;;;;;;5.67;100.00;99774.09;1654990;86;21103;-82
2021/12/10 03:36:52;;;;;;;18.23;13.78;;;;;;;5.70;100.00;99775.02;1660713;86;21115;-81
2021/12/10 03:39:22;;;;;;;21.80;16.37;;;;;;;5.69;100.00;99781.38;1660589;85;21126;-79
2021/12/10 03:41:49;;;;;;;20.82;14.43;;;;;;;5.65;100.00;99778.33;1661543;86;21083;-80
2021/12/10 03:44:16;;;;;;;20.85;13.83;;;;;;;5.67;100.00;99784.25;1663051;85;21078;-77
2021/12/10 03:46:42;;;;;;;18.82;15.30;;;;;;;5.66;100.00;99790.61;1665411;85;20975;-78
2021/12/10 03:49:09;;;;;;;22.17;15.50;;;;;;;5.63;100.00;99792.39;1672270;85;21058;-77
2021/12/10 03:51:35;;;;;;;21.35;14.95;;;;;;;5.64;100.00;99787.87;1688691;85;21019;-79
2021/12/10 03:54:04;;;;;;;22.30;15.30;;;;;;;5.62;100.00;99785.92;1681809;85;21498;-79
2021/12/10 03:56:31;;;;;;;22.52;16.32;;;;;;;5.63;100.00;99779.56;1688413;85;21340;-79
2021/12/10 03:59:01;;;;;;;20.85;15.68;;;;;;;5.67;100.00;99786.09;1688597;85;21055;-79
2021/12/10 04:01:30;;;;;;;26.40;17.92;;;;;;;5.65;100.00;99785.52;1670333;85;21534;-76
2021/12/10 04:04:00;;;;;;;21.55;15.98;;;;;;;5.61;100.00;99782.44;1689038;83;20983;-78
2021/12/10 04:06:26;;;;;;;23.57;17.27;;;;;;;5.63;100.00;99783.56;1669813;84;21091;-77
2021/12/10 04:08:53;;;;;;;22.00;17.35;;;;;;;5.61;100.00;99782.44;1697457;83;21140;-77
2021/12/10 04:11:19;;;;;;;21.12;15.03;;;;;;;5.63;100.00;99779.56;1705535;83;21050;-78
2021/12/10 04:13:48;;;;;;;22.48;16.97;;;;;;;5.68;100.00;99788.56;1695620;83;21611;-78
2021/12/10 04:16:17;;;;;;;25.82;16.90;;;;;;;5.67;100.00;99783.42;1667196;85;21170;-78
2021/12/10 04:18:46;;;;;;;21.35;15.85;;;;;;;5.62;100.00;99788.08;1667104;86;22400;-78
2021/12/10 04:21:13;;;;;;;24.32;19.25;;;;;;;5.62;100.00;99785.41;1672443;85;21103;-77
2021/12/10 04:23:41;;;;;;;27.27;19.45;;;;;;;5.61;100.00;99789.11;1674872;83;21103;-78
2021/12/10 04:26:12;;;;;;;27.30;18.40;;;;;;;5.58;100.00;99793.55;1693921;83;21091;-78
2021/12/10 04:28:38;;;;;;;26.25;17.75;;;;;;;5.59;100.00;99795.19;1693299;84;21036;-79
2021/12/10 04:31:06;;;;;;;27.25;18.00;;;;;;;5.62;100.00;99796.59;1693601;84;21126;-81
2021/12/10 04:33:33;;;;;;;26.65;18.70;;;;;;;5.65;100.00;99794.85;1713917;83;21039;-80
2021/12/10 04:36:02;;;;;;;24.55;18.35;;;;;;;5.67;100.00;99797.59;1695052;83;21102;-79
2021/12/10 04:38:32;;;;;;;27.67;20.65;;;;;;;5.71;100.00;99793.97;1677983;84;21046;-77
2021/12/10 04:41:01;;;;;;;23.85;17.98;;;;;;;5.66;100.00;99803.13;1695302;84;21122;-77
2021/12/10 04:43:31;;;;;;;27.37;18.73;;;;;;;5.65;100.00;99798.34;1694572;84;21757;-76
2021/12/10 04:45:58;;;;;;;24.63;18.05;;;;;;;5.67;100.00;99801.59;1691609;83;21008;-78
2021/12/10 04:48:26;;;;;;;23.55;17.40;;;;;;;5.67;100.00;99805.59;1693674;84;21520;-79
2021/12/10 04:50:53;;;;;;;28.90;19.42;;;;;;;5.64;100.00;99791.88;1693683;84;21626;-79
2021/12/10 04:53:21;;;;;;;28.05;19.35;;;;;;;5.67;100.00;99787.43;1693269;84;21599;-79
2021/12/10 04:55:48;;;;;;;26.85;19.35;;;;;;;5.76;100.00;99794.66;1691058;83;21920;-79
2021/12/10 04:58:15;;;;;;;27.05;19.87;;;;;;;5.80;100.00;99787.87;1703918;83;21229;-80
2021/12/10 05:00:46;;;;;;;25.85;17.45;;;;;;;5.74;100.00;99789.55;1682327;83;21092;-80
2021/12/10 05:03:12;;;;;;;28.05;18.62;;;;;;;5.67;100.00;99786.09;1699868;83;21031;-83
2021/12/10 05:05:40;;;;;;;22.32;17.77;;;;;;;5.67;100.00;99794.92;1688767;83;21058;-84
2021/12/10 05:08:09;;;;;;;29.05;20.20;;;;;;;5.68;100.00;99786.41;1695122;84;21720;-82
2021/12/10 05:10:35;;;;;;;23.83;17.40;;;;;;;5.68;100.00;99791.74;1695182;84;21589;-82
2021/12/10 05:13:02;;;;;;;23.40;16.02;;;;;;;5.71;100.00;99789.97;1695240;84;20998;-80
2021/12/10 05:15:31;;;;;;;21.12;15.32;;;;;;;5.75;100.00;99793.86;1713240;83;21136;-80
2021/12/10 05:17:58;;;;;;;25.48;18.50;;;;;;;5.78;100.00;99796.09;1724104;82;21007;-79
2021/12/10 05:20:31;;;;;;;28.83;20.82;;;;;;;5.75;100.00;99797.87;1724003;82;21867;-80
2021/12/10 05:22:59;;;;;;;26.80;17.40;;;;;;;5.73;100.00;99805.26;1700195;82;21658;-80
2021/12/10 05:25:26;;;;;;;29.25;18.35;;;;;;;5.71;100.00;99807.31;1712949;83;21067;-79
2021/12/10 05:27:52;;;;;;;23.77;15.20;;;;;;;5.68;100.00;99803.75;1705725;83;21101;-77
2021/12/10 05:30:22;;;;;;;22.70;17.60;;;;;;;5.67;100.00;99809.60;1720860;82;21066;-79
2021/12/10 05:32:49;;;;;;;20.72;15.20;;;;;;;5.70;100.00;99809.70;1668058;83;21114;-78
2021/12/10 05:35:16;;;;;;;25.80;17.52;;;;;;;5.72;100.00;99815.63;1682259;84;21552;-77
2021/12/10 05:37:42;;;;;;;23.25;16.12;;;;;;;5.70;100.00;99811.03;1677604;84;21528;-78
2021/12/10 05:40:12;;;;;;;25.57;18.25;;;;;;;5.67;100.00;99811.45;1696383;84;21023;-78
2021/12/10 05:42:42;;;;;;;23.25;17.25;;;;;;;5.64;100.00;99810.04;1678785;84;21056;-79
2021/12/10 05:45:11;;;;;;;23.38;18.20;;;;;;;5.73;100.00;99824.45;1691358;83;21149;-79
2021/12/10 05:47:38;;;;;;;28.20;21.30;;;;;;;5.80;100.00;99809.23;1690669;82;22225;-80
2021/12/10 05:50:06;;;;;;;26.40;19.37;;;;;;;5.83;100.00;99818.13;1622757;87;21058;-80
2021/12/10 05:52:34;;;;;;;26.60;18.35;;;;;;;5.77;100.00;99817.13;1667409;86;21549;-81
2021/12/10 05:55:04;;;;;;;29.70;16.40;;;;;;;5.68;100.00;99814.42;1665205;83;21038;-83
2021/12/10 05:57:30;;;;;;;28.07;18.05;;;;;;;5.65;100.00;99813.53;1693691;83;21148;-83
2021/12/10 05:59:57;;;;;;;25.77;18.07;;;;;;;5.58;100.00;99820.73;1641575;87;21074;-83
2021/12/10 06:02:25;;;;;;;22.22;16.23;;;;;;;5.50;100.00;99821.82;1672360;83;21050;-82
2021/12/10 06:04:53;;;;;;;23.45;16.48;;;;;;;5.48;100.00;99822.53;1697832;83;21058;-83
2021/12/10 06:07:25;;;;;;;23.73;16.57;;;;;;;5.46;100.00;99822.47;1665460;86;21074;-79
2021/12/10 06:09:51;;;;;;;22.00;17.00;;;;;;;5.44;100.00;99831.18;1660786;86;21159;-81
2021/12/10 06:12:20;;;;;;;21.10;15.70;;;;;;;5.46;100.00;99827.80;1594004;86;21058;-80
2021/12/10 06:14:47;;;;;;;20.92;16.48;;;;;;;5.47;100.00;99836.08;1703006;83;21065;-82
2021/12/10 06:17:13;;;;;;;24.52;18.48;;;;;;;5.49;100.00;99834.84;1670178;86;21467;-82
2021/12/10 06:19:40;;;;;;;25.92;19.12;;;;;;;5.49;100.00;99835.36;1669860;86;21074;-81
2021/12/10 06:22:07;;;;;;;23.05;18.98;;;;;;;5.51;100.00;99828.80;1670017;86;21150;-82
2021/12/10 06:24:35;;;;;;;23.62;17.55;;;;;;;5.51;100.00;99831.47;1688560;83;20971;-80
2021/12/10 06:27:03;;;;;;;21.75;16.27;;;;;;;5.56;100.00;99826.28;1652121;84;21098;-77
2021/12/10 06:29:30;;;;;;;32.25;22.82;;;;;;;5.63;100.00;99825.73;1665371;84;21679;-77
2021/12/10 06:31:58;;;;;;;29.57;21.68;;;;;;;5.64;100.00;99814.55;1698167;84;21075;-77
2021/12/10 06:34:28;;;;;;;28.65;20.75;;;;;;;5.62;100.00;99819.27;1657056;83;21015;-79
2021/12/10 06:36:55;;;;;;;39.92;27.20;;;;;;;5.60;100.00;99821.36;1680440;83;20948;-78
2021/12/10 06:39:24;;;;;;;44.05;30.82;;;;;;;5.58;100.00;99822.08;1697299;83;20978;-78
2021/12/10 06:41:53;;;;;;;44.58;31.07;;;;;;;5.55;100.00;99826.52;1698306;84;21351;-79
2021/12/10 06:44:21;;;;;;;38.55;30.17;;;;;;;5.53;100.00;99825.38;1677627;84;21098;-81
2021/12/10 06:46:50;;;;;;;37.28;29.20;;;;;;;5.52;100.00;99823.74;1670192;84;20979;-82
2021/12/10 06:49:18;;;;;;;38.60;28.67;;;;;;;5.53;100.00;99827.23;1640335;84;20991;-78
2021/12/10 06:51:44;;;;;;;41.50;31.77;;;;;;;5.53;100.00;99825.89;1678456;84;20987;-83
2021/12/10 06:54:10;;;;;;;42.83;29.27;;;;;;;5.55;100.00;99829.18;1683390;84;21058;-80
2021/12/10 06:56:38;;;;;;;38.48;27.93;;;;;;;5.62;100.00;99828.61;1680202;84;21062;-79
2021/12/10 06:59:06;;;;;;;31.65;23.57;;;;;;;5.63;100.00;99823.08;1727173;79;21108;-80
2021/12/10 07:01:36;;;;;;;33.75;23.52;;;;;;;5.69;100.00;99821.40;1731162;81;21091;-79
2021/12/10 07:04:04;;;;;;;42.47;27.40;;;;;;;5.76;100.00;99821.34;1717736;79;21022;-78
2021/12/10 07:06:31;;;;;;;36.50;25.68;;;;;;;5.83;100.00;99820.28;1701357;83;21047;-80
2021/12/10 07:08:59;;;;;;;50.12;27.80;;;;;;;5.87;100.00;99820.69;1736050;82;20964;-79
2021/12/10 07:11:27;;;;;;;56.68;33.20;;;;;;;5.86;100.00;99823.02;1747491;81;20975;-81
2021/12/10 07:13:56;;;;;;;51.77;31.23;;;;;;;5.88;100.00;99817.81;1747606;81;20979;-83
2021/12/10 07:16:25;;;;;;;48.13;29.70;;;;;;;5.93;100.00;99817.16;1696199;83;21012;-79
2021/12/10 07:18:52;;;;;;;35.98;25.00;;;;;;;5.98;100.00;99820.00;1689133;83;21538;-80
2021/12/10 07:21:19;;;;;;;32.42;22.22;;;;;;;5.97;100.00;99815.69;1687961;83;21665;-80
2021/12/10 07:23:46;;;;;;;40.15;26.02;;;;;;;6.01;100.00;99815.04;1714808;83;21104;-80
2021/12/10 07:26:13;;;;;;;39.53;26.23;;;;;;;6.04;100.00;99812.47;1651960;85;21010;-81
2021/12/10 07:28:39;;;;;;;38.58;26.93;;;;;;;6.06;100.00;99817.06;1723840;82;20954;-82
2021/12/10 07:31:07;;;;;;;41.13;26.23;;;;;;;6.06;100.00;99814.39;1718260;82;21035;-80
2021/12/10 07:33:34;;;;;;;35.08;26.93;;;;;;;6.03;100.00;99813.50;1745687;82;20997;-82
2021/12/10 07:36:01;;;;;;;34.20;21.33;;;;;;;6.02;100.00;99808.67;1714763;82;21311;-78
2021/12/10 07:38:35;;;;;;;33.18;22.05;;;;;;;6.00;100.00;99809.39;1707756;82;20987;-80
2021/12/10 07:41:02;;;;;;;34.75;21.57;;;;;;;6.00;100.00;99817.41;1716394;83;21594;-79
2021/12/10 07:43:29;;;;;;;27.82;18.30;;;;;;;6.00;100.00;99813.40;1716540;83;21042;-78
2021/12/10 07:45:56;;;;;;;30.35;20.25;;;;;;;6.00;100.00;99810.73;1689848;82;21011;-78
2021/12/10 07:48:24;;;;;;;28.87;19.30;;;;;;;5.98;100.00;99818.67;1731601;82;21171;-79
2021/12/10 07:50:59;;;;;;;31.02;22.13;;;;;;;6.01;100.00;99814.22;1678329;83;21015;-78
2021/12/10 07:53:28;;;;;;;29.10;20.17;;;;;;;6.05;100.00;99817.57;1728725;82;21625;-80
2021/12/10 07:55:56;;;;;;;26.25;17.85;;;;;;;6.16;100.00;99820.58;1685256;84;21025;-79
2021/12/10 07:58:25;;;;;;;27.55;17.92;;;;;;;6.21;100.00;99820.23;1715262;82;21078;-80
2021/12/10 08:00:52;;;;;;;27.27;19.80;;;;;;;6.23;100.00;99817.34;1718341;82;21030;-79
2021/12/10 08:03:23;;;;;;;27.42;21.23;;;;;;;6.25;100.00;99793.89;1742979;82;20943;-82
2021/12/10 08:05:50;;;;;;;32.58;23.85;;;;;;;6.19;100.00;99794.24;1717258;82;21001;-78
2021/12/10 08:08:17;;;;;;;33.92;24.07;;;;;;;6.13;100.00;99802.64;1699090;82;21058;-74
2021/12/10 08:10:47;;;;;;;32.03;24.57;;;;;;;6.13;100.00;99807.16;1713301;82;21047;-75
2021/12/10 08:13:15;;;;;;;37.85;26.87;;;;;;;6.15;100.00;99802.39;1738517;82;21152;-76
2021/12/10 08:15:43;;;;;;;43.50;29.00;;;;;;;6.17;100.00;99805.68;1695322;82;21075;-78
2021/12/10 08:18:12;;;;;;;37.00;25.17;;;;;;;6.19;100.00;99800.12;1695194;82;21047;-79
2021/12/10 08:20:39;;;;;;;35.85;24.55;;;;;;;6.19;100.00;99799.59;1738697;82;21015;-78
2021/12/10 08:23:07;;;;;;;30.25;19.42;;;;;;;6.19;100.00;99797.46;1725506;82;21547;-80
2021/12/10 08:25:36;;;;;;;42.58;23.77;;;;;;;6.20;100.00;99791.88;1717876;83;20966;-77
2021/12/10 08:28:04;;;;;;;34.83;23.52;;;;;;;6.23;100.00;99785.30;1693009;82;20943;-77
2021/12/10 08:30:32;;;;;;;41.90;24.40;;;;;;;6.28;100.00;99746.22;1713465;82;21026;-79
2021/12/10 08:33:01;;;;;;;33.63;25.43;;;;;;;6.33;100.00;99746.34;1704171;82;21479;-79
2021/12/10 08:35:31;;;;;;;32.50;21.02;;;;;;;6.34;100.00;99760.52;1705076;83;21044;-79
2021/12/10 08:38:00;;;;;;;32.85;23.52;;;;;;;6.35;100.00;99758.16;1693025;82;21786;-79
2021/12/10 08:40:36;;;;;;;34.78;21.50;;;;;;;6.33;100.00;99754.91;1725263;82;21518;-78
2021/12/10 08:43:02;;;;;;;33.53;22.77;;;;;;;6.36;100.00;99760.61;1713447;82;21634;-78
2021/12/10 08:45:32;;;;;;;33.53;22.73;;;;;;;6.37;100.00;99754.23;1724916;82;20890;-80
2021/12/10 08:47:58;;;;;;;34.63;20.25;;;;;;;6.36;100.00;99745.92;1715112;83;21354;-78
2021/12/10 08:50:27;;;;;;;29.72;19.98;;;;;;;6.42;100.00;99752.23;1690875;84;21142;-81
2021/12/10 08:53:03;;;;;;;32.00;21.37;;;;;;;6.45;100.00;99752.61;1654441;84;21005;-83
2021/12/10 08:55:36;;;;;;;29.60;19.92;;;;;;;6.46;100.00;99750.24;1674854;84;21019;-80
2021/12/10 08:58:06;;;;;;;28.83;20.72;;;;;;;6.46;100.00;99746.75;1730761;82;20954;-82
2021/12/10 09:00:35;;;;;;;34.20;21.82;;;;;;;6.49;100.00;99744.96;1710452;82;21007;-79
2021/12/10 09:03:06;;;;;;;35.95;19.67;;;;;;;6.53;100.00;99744.80;1731602;82;20997;-80
2021/12/10 09:05:35;;;;;;;28.30;18.50;;;;;;;6.58;100.00;99740.44;1714449;82;21021;-80
2021/12/10 09:08:04;;;;;;;26.75;18.73;;;;;;;6.60;100.00;99735.39;1725292;82;22378;-82
2021/12/10 09:10:36;;;;;;;34.18;22.40;;;;;;;6.60;100.00;99732.72;1696681;84;21596;-81
2021/12/10 09:13:13;;;;;;;35.95;24.90;;;;;;;6.62;100.00;99733.33;1670778;84;21126;-81
2021/12/10 09:15:42;;;;;;;28.73;20.08;;;;;;;6.63;100.00;99726.41;1693746;84;21580;-82
2021/12/10 09:18:12;;;;;;;30.82;22.02;;;;;;;6.64;100.00;99730.72;1677830;83;22241;-83
2021/12/10 09:20:44;;;;;;;28.32;20.97;;;;;;;6.69;100.00;99730.86;1679055;83;21543;-82
2021/12/10 09:23:15;;;;;;;20.65;15.80;;;;;;;6.75;100.00;99737.17;1692646;83;21047;-82
2021/12/10 09:25:43;;;;;;;23.95;16.95;;;;;;;6.82;100.00;99737.38;1695245;84;21042;-83
2021/12/10 09:28:18;;;;;;;24.67;17.98;;;;;;;6.86;100.00;99747.09;1687484;83;21185;-82
2021/12/10 09:30:49;;;;;;;17.70;13.88;;;;;;;6.88;100.00;99735.67;1670717;84;21059;-79
2021/12/10 09:33:20;;;;;;;22.40;16.48;;;;;;;6.94;100.00;99744.96;1669026;84;21131;-80
2021/12/10 09:35:52;;;;;;;23.25;17.57;;;;;;;6.95;100.00;99749.24;1669502;86;21607;-80
2021/12/10 09:38:24;;;;;;;19.67;15.13;;;;;;;6.99;100.00;99749.11;1670129;83;21568;-81
2021/12/10 09:40:58;;;;;;;26.95;15.93;;;;;;;6.98;100.00;99752.82;1673661;85;21888;-81
2021/12/10 09:43:25;;;;;;;21.02;15.08;;;;;;;7.01;100.00;99751.54;1679190;84;21113;-81
2021/12/10 09:45:57;;;;;;;19.40;14.38;;;;;;;6.97;100.00;99748.51;1695564;83;21558;-82
2021/12/10 09:48:26;;;;;;;17.82;13.75;;;;;;;6.89;100.00;99757.36;1680799;83;21035;-80
2021/12/10 09:51:01;;;;;;;19.75;14.53;;;;;;;6.88;100.00;99746.37;1730351;82;21087;-87
2021/12/10 09:53:30;;;;;;;21.73;14.83;;;;;;;6.84;100.00;99742.00;1698864;82;21084;-84
2021/12/10 09:55:57;;;;;;;19.00;14.07;;;;;;;6.82;100.00;99715.99;1628461;86;20991;-83
2021/12/10 09:58:34;;;;;;;20.90;14.83;;;;;;;6.83;100.00;99730.18;1710834;83;21018;-82
2021/12/10 10:01:19;;;;;;;21.55;18.02;;;;;;;6.85;100.00;99731.60;1705084;83;21048;-82
2021/12/10 10:03:48;;;;;;;16.52;14.58;;;;;;;6.80;100.00;99723.44;1681710;84;21589;-80
2021/12/10 10:06:20;;;;;;;20.30;17.17;;;;;;;6.77;100.00;99723.05;1684468;84;21078;-83
2021/12/10 10:08:50;;;;;;;21.35;15.88;;;;;;;6.76;100.00;99726.23;1669233;84;21015;-80
2021/12/10 10:11:22;;;;;;;19.15;15.48;;;;;;;6.78;100.00;99720.68;1691446;83;21075;-76
2021/12/10 10:13:50;;;;;;;18.67;15.25;;;;;;;6.77;100.00;99717.70;1675994;85;21043;-76
2021/12/10 10:16:17;;;;;;;21.75;16.23;;;;;;;6.76;100.00;99712.88;1686396;84;21150;-77
2021/12/10 10:18:44;;;;;;;19.57;16.12;;;;;;;6.79;100.00;99716.45;1702592;83;21511;-79
2021/12/10 10:21:19;;;;;;;20.55;15.72;;;;;;;6.82;100.00;99710.65;1693552;83;20983;-77
2021/12/10 10:23:47;;;;;;;23.62;16.52;;;;;;;6.82;100.00;99714.66;1701401;83;21619;-81
2021/12/10 10:26:31;;;;;;;23.90;17.00;;;;;;;6.79;100.00;99700.42;1704524;83;21066;-79
2021/12/10 10:28:58;;;;;;;23.87;18.30;;;;;;;6.81;100.00;99702.88;1700291;83;21066;-79
2021/12/10 10:31:28;;;;;;;28.25;18.32;;;;;;;6.81;100.00;99698.32;1698503;83;21770;-77
2021/12/10 10:34:00;;;;;;;27.55;18.42;;;;;;;6.82;100.00;99695.13;1667977;84;21054;-81
2021/12/10 10:36:32;;;;;;;24.23;17.48;;;;;;;6.81;100.00;99707.67;1686609;83;21022;-80
2021/12/10 10:39:14;;;;;;;26.75;18.55;;;;;;;6.78;100.00;99706.80;1665945;84;21533;-78
2021/12/10 10:41:45;;;;;;;23.55;17.65;;;;;;;6.76;100.00;99684.81;1696392;83;21022;-78
2021/12/10 10:44:17;;;;;;;25.35;19.12;;;;;;;6.75;100.00;99689.89;1687346;83;20928;-78
2021/12/10 10:46:45;;;;;;;23.30;17.67;;;;;;;6.70;100.00;99684.39;1692795;83;21106;-79
2021/12/10 10:49:38;;;;;;;24.37;18.48;;;;;;;6.73;100.00;99684.45;1727351;83;21555;-80
2021/12/10 10:52:28;;;;;;;28.65;21.80;;;;;;;6.76;100.00;99672.78;1706351;83;21424;-80
2021/12/10 10:55:03;;;;;;;23.50;17.05;;;;;;;6.77;100.00;99682.44;1700250;82;21094;-78
2021/12/10 10:57:31;;;;;;;20.72;15.70;;;;;;;6.77;100.00;99676.27;1715975;83;21059;-78
2021/12/10 11:00:29;;;;;;;25.65;17.27;;;;;;;6.73;100.00;99668.42;1699451;83;21014;-80
2021/12/10 11:03:03;;;;;;;31.05;21.68;;;;;;;6.74;100.00;99671.39;1722170;83;21051;-78
2021/12/10 11:05:32;;;;;;;32.63;21.42;;;;;;;6.73;100.00;99657.73;1708562;83;21003;-78
2021/12/10 11:08:01;;;;;;;35.70;22.62;;;;;;;6.72;100.00;99664.11;1719571;83;21054;-77
2021/12/10 11:10:36;;;;;;;30.68;20.27;;;;;;;6.76;100.00;99667.98;1655558;85;21153;-76
2021/12/10 11:13:15;;;;;;;30.80;21.82;;;;;;;6.80;100.00;99667.31;1686108;83;20990;-79
2021/12/10 11:16:06;;;;;;;27.42;19.02;;;;;;;6.79;100.00;99658.17;1716704;83;21018;-81
2021/12/10 11:19:04;;;;;;;24.37;16.62;;;;;;;6.80;100.00;99652.61;1692545;83;20941;-83
2021/12/10 11:21:55;;;;;;;22.32;17.27;;;;;;;6.80;100.00;99651.27;1693973;83;21174;-80
2021/12/10 11:24:29;;;;;;;26.70;19.02;;;;;;;6.85;100.00;99649.25;1676465;83;21318;-81
2021/12/10 11:27:13;;;;;;;24.57;19.00;;;;;;;6.84;100.00;99638.26;1691193;83;21003;-84
2021/12/10 11:29:57;;;;;;;32.28;21.52;;;;;;;6.82;100.00;99629.13;1668680;86;21161;-81
2021/12/10 11:32:56;;;;;;;29.60;21.10;;;;;;;6.83;100.00;99636.63;1608813;86;21620;-81
2021/12/10 11:35:26;;;;;;;27.93;19.15;;;;;;;6.83;100.00;99630.76;1674748;84;21556;-81
2021/12/10 11:38:14;;;;;;;32.23;21.55;;;;;;;6.85;100.00;99638.56;1691914;84;21119;-83
2021/12/10 11:41:06;;;;;;;29.70;23.80;;;;;;;6.88;100.00;99632.75;1672365;84;21086;-83